Time;durP1;ratioP1;P1;durP2;ratioP2;P2;SDS_P1;SDS_P2;PMS_P1;PMS_P2;Temp;Humidity;BMP_temperature;BMP_pressure;BME280_temperature;BME280_humidity;BME280_pressure;Samples;Min_cycle;Max_cycle;Signal;HPM_P1;HPM_P2
2022/11/15 00:01:18;;;;;;;6.53;2.83;;;8.50;99.90;;;;;;5013514;28;20214;-89
2022/11/15 00:03:53;;;;;;;5.00;3.40;;;8.40;99.90;;;;;;5016223;28;20228;-88
2022/11/15 00:06:25;;;;;;;6.47;2.70;;;8.40;99.90;;;;;;5014213;28;20677;-89
2022/11/15 00:08:56;;;;;;;5.33;2.90;;;8.30;99.90;;;;;;5020063;28;20316;-90
2022/11/15 00:11:27;;;;;;;3.90;2.90;;;8.20;99.90;;;;;;5017445;28;20241;-88
2022/11/15 00:13:58;;;;;;;4.53;3.07;;;8.10;99.90;;;;;;5015912;28;20210;-88
2022/11/15 00:16:29;;;;;;;3.53;3.23;;;8.00;99.90;;;;;;5018070;28;20205;-89
2022/11/15 00:18:59;;;;;;;7.17;3.60;;;7.90;99.90;;;;;;5017894;28;20256;-89
2022/11/15 00:21:31;;;;;;;4.50;3.40;;;7.80;99.90;;;;;;5017910;28;20245;-90
2022/11/15 00:24:02;;;;;;;4.23;3.50;;;7.80;99.90;;;;;;5016729;28;20240;-90
2022/11/15 00:26:33;;;;;;;4.00;3.33;;;7.70;99.90;;;;;;5017850;28;20642;-88
2022/11/15 00:29:03;;;;;;;5.13;3.27;;;7.60;99.90;;;;;;5019279;28;20305;-89
2022/11/15 00:31:34;;;;;;;5.47;3.73;;;7.40;99.90;;;;;;5016702;28;20286;-89
2022/11/15 00:34:05;;;;;;;5.00;3.60;;;7.30;99.90;;;;;;5016289;28;20205;-89
2022/11/15 00:36:37;;;;;;;5.70;4.00;;;7.20;99.90;;;;;;5017219;28;20245;-89
2022/11/15 00:39:08;;;;;;;4.97;3.73;;;7.10;99.90;;;;;;5017612;28;20206;-88
2022/11/15 00:41:39;;;;;;;6.43;3.90;;;7.00;99.90;;;;;;5016932;28;20220;-89
2022/11/15 00:44:09;;;;;;;5.17;3.60;;;6.90;99.90;;;;;;4997145;28;20690;-88
2022/11/15 00:46:40;;;;;;;5.20;3.60;;;6.90;99.90;;;;;;4997906;28;20241;-88
2022/11/15 00:49:10;;;;;;;6.43;3.30;;;6.80;99.90;;;;;;5014521;28;20316;-89
2022/11/15 00:51:43;;;;;;;5.37;3.83;;;6.70;99.90;;;;;;5016941;28;20263;-88
2022/11/15 00:54:14;;;;;;;5.30;3.40;;;6.70;99.90;;;;;;5016302;28;20233;-89
2022/11/15 00:56:44;;;;;;;5.73;3.67;;;6.50;99.90;;;;;;5017575;28;20224;-88
2022/11/15 00:59:15;;;;;;;5.37;3.50;;;6.50;99.90;;;;;;5017426;28;20300;-90
2022/11/15 01:01:46;;;;;;;6.23;4.00;;;6.40;99.90;;;;;;5016308;28;20209;-87
2022/11/15 01:04:16;;;;;;;4.10;3.63;;;6.30;99.90;;;;;;5037180;28;20204;-87
2022/11/15 01:06:48;;;;;;;5.57;3.80;;;6.20;99.90;;;;;;5037733;28;20200;-88
2022/11/15 01:09:19;;;;;;;4.53;3.57;;;6.20;99.90;;;;;;5031701;28;20237;-89
2022/11/15 01:11:50;;;;;;;5.33;3.80;;;6.10;99.90;;;;;;5029570;28;20289;-89
2022/11/15 01:14:20;;;;;;;5.57;3.83;;;6.00;99.90;;;;;;5035943;28;20193;-88
2022/11/15 01:16:54;;;;;;;7.73;4.30;;;5.90;99.90;;;;;;5037177;28;20204;-88
2022/11/15 01:19:25;;;;;;;6.30;4.20;;;5.80;99.90;;;;;;5026108;28;20213;-88
2022/11/15 01:21:57;;;;;;;5.23;4.10;;;5.80;99.90;;;;;;5023653;28;20271;-89
2022/11/15 01:24:28;;;;;;;7.87;4.67;;;5.70;99.90;;;;;;5023346;28;20259;-89
2022/11/15 01:26:59;;;;;;;4.50;3.80;;;5.70;99.90;;;;;;5018670;28;20249;-87
2022/11/15 01:29:29;;;;;;;8.60;4.17;;;5.60;99.90;;;;;;5016516;28;20315;-89
2022/11/15 01:32:00;;;;;;;5.60;4.27;;;5.50;99.90;;;;;;5015277;28;20212;-88
2022/11/15 01:34:31;;;;;;;6.33;4.20;;;5.50;99.90;;;;;;5016226;28;20301;-89
2022/11/15 01:37:03;;;;;;;5.20;3.87;;;5.40;99.90;;;;;;5015708;28;20304;-89
2022/11/15 01:39:33;;;;;;;8.10;4.07;;;5.30;99.90;;;;;;5015655;28;20205;-87
2022/11/15 01:42:04;;;;;;;5.63;4.50;;;5.30;99.90;;;;;;5014640;28;20274;-87
2022/11/15 01:44:45;;;;;;;6.33;4.00;;;5.30;99.90;;;;;;5014169;28;20225;-88
2022/11/15 01:47:19;;;;;;;4.53;3.80;;;5.20;99.90;;;;;;5012610;28;20209;-88
2022/11/15 01:49:56;;;;;;;5.53;4.47;;;5.20;99.90;;;;;;5014237;28;20279;-87
2022/11/15 01:52:31;;;;;;;6.93;4.33;;;5.20;99.90;;;;;;5013428;28;20193;-88
2022/11/15 01:55:06;;;;;;;5.30;4.10;;;5.10;99.90;;;;;;5012547;28;20207;-88
2022/11/15 01:57:37;;;;;;;6.83;4.30;;;5.10;99.90;;;;;;5013850;28;20197;-88
2022/11/15 02:00:09;;;;;;;8.87;4.40;;;5.10;99.90;;;;;;5013438;28;20294;-88
2022/11/15 02:02:40;;;;;;;5.47;4.57;;;5.10;99.90;;;;;;5013855;28;20681;-88
2022/11/15 02:05:11;;;;;;;6.87;4.83;;;5.00;99.90;;;;;;5016422;28;20244;-88
2022/11/15 02:07:44;;;;;;;7.53;4.80;;;5.00;99.90;;;;;;5009847;28;20220;-88
2022/11/15 02:10:19;;;;;;;6.53;4.40;;;5.00;99.90;;;;;;5011174;28;20233;-88
2022/11/15 02:12:51;;;;;;;7.50;5.10;;;5.00;99.90;;;;;;5006102;28;20210;-91
2022/11/15 02:15:21;;;;;;;6.33;5.17;;;5.00;99.90;;;;;;5006931;28;20236;-88
2022/11/15 02:18:08;;;;;;;10.00;5.60;;;5.00;99.90;;;;;;5014805;28;20237;-88
2022/11/15 02:20:52;;;;;;;7.33;5.13;;;5.00;99.90;;;;;;5014412;28;20308;-89
2022/11/15 02:23:55;;;;;;;8.17;5.47;;;5.00;99.90;;;;;;5010512;28;20731;-87
2022/11/15 02:26:54;;;;;;;7.90;5.70;;;4.90;99.90;;;;;;5013897;28;20248;-88
2022/11/15 02:29:40;;;;;;;7.33;4.87;;;4.90;99.90;;;;;;5013502;28;20243;-89
2022/11/15 02:32:21;;;;;;;8.53;5.33;;;4.90;99.90;;;;;;5013268;28;20205;-90
2022/11/15 02:34:56;;;;;;;8.80;5.47;;;4.90;99.90;;;;;;5011898;28;20213;-90
2022/11/15 02:37:37;;;;;;;6.70;5.00;;;4.90;99.90;;;;;;5019849;28;20254;-89
2022/11/15 02:40:15;;;;;;;7.20;5.20;;;4.80;99.90;;;;;;5018069;28;20270;-89
2022/11/15 02:45:46;;;;;;;7.13;5.17;;;4.70;99.90;;;;;;5012267;28;20233;-90
2022/11/15 02:48:20;;;;;;;8.77;5.30;;;4.70;99.90;;;;;;5012527;28;20292;-87
2022/11/15 02:50:53;;;;;;;9.73;5.33;;;4.60;99.90;;;;;;5014531;28;20364;-90
2022/11/15 02:53:27;;;;;;;7.10;5.23;;;4.60;99.90;;;;;;5004626;28;20221;-90
2022/11/15 02:56:00;;;;;;;7.90;4.93;;;4.50;99.90;;;;;;5015335;28;20762;-89
2022/11/15 02:58:54;;;;;;;7.57;5.10;;;4.50;99.90;;;;;;5003521;28;20244;-89
2022/11/15 03:01:38;;;;;;;6.87;5.07;;;4.40;99.90;;;;;;5008372;28;20287;-90
2022/11/15 03:04:21;;;;;;;6.63;5.03;;;4.40;99.90;;;;;;5013511;28;20288;-90
2022/11/15 03:06:59;;;;;;;7.87;5.53;;;4.40;99.90;;;;;;5007119;28;20260;-91
2022/11/15 03:09:37;;;;;;;7.03;5.27;;;4.30;99.90;;;;;;5014872;28;20324;-92
2022/11/15 03:12:13;;;;;;;8.53;5.47;;;4.30;99.90;;;;;;5007243;28;20234;-89
2022/11/15 03:14:55;;;;;;;5.87;4.83;;;4.30;99.90;;;;;;5012194;28;20233;-89
2022/11/15 03:17:28;;;;;;;7.73;5.40;;;4.20;99.90;;;;;;5011940;28;20255;-89
2022/11/15 03:20:03;;;;;;;8.27;5.47;;;4.10;99.90;;;;;;5014234;28;20294;-88
2022/11/15 03:22:40;;;;;;;9.37;5.80;;;4.10;99.90;;;;;;5011431;28;20288;-89
2022/11/15 03:25:15;;;;;;;7.97;5.60;;;4.10;99.90;;;;;;5012190;28;20206;-88
2022/11/15 03:27:51;;;;;;;7.83;5.77;;;4.10;99.90;;;;;;5012216;28;20208;-89
2022/11/15 03:30:22;;;;;;;7.70;5.23;;;4.10;99.90;;;;;;5011886;28;20265;-89
2022/11/15 03:32:55;;;;;;;9.67;5.50;;;4.00;99.90;;;;;;5010783;28;20292;-88
2022/11/15 03:35:29;;;;;;;9.60;5.37;;;4.00;99.90;;;;;;4994136;28;20289;-89
2022/11/15 03:38:05;;;;;;;8.37;5.43;;;4.00;99.90;;;;;;5011678;28;20288;-89
2022/11/15 03:40:41;;;;;;;8.70;5.77;;;4.00;99.90;;;;;;5012309;28;20701;-89
2022/11/15 03:43:17;;;;;;;6.57;5.17;;;4.00;99.90;;;;;;5003868;28;20205;-89
2022/11/15 03:45:52;;;;;;;7.33;5.50;;;4.00;99.90;;;;;;5016219;28;20362;-88
2022/11/15 03:48:27;;;;;;;8.13;5.43;;;4.00;99.90;;;;;;5014125;28;20231;-94
2022/11/15 03:51:00;;;;;;;7.40;5.13;;;4.00;99.90;;;;;;5010363;28;20272;-93
2022/11/15 03:53:33;;;;;;;7.93;4.97;;;4.00;99.90;;;;;;5015303;28;20233;-94
2022/11/15 03:56:03;;;;;;;7.57;5.37;;;4.00;99.90;;;;;;5014450;28;20293;-93
2022/11/15 03:58:34;;;;;;;6.63;5.10;;;3.90;99.90;;;;;;5011774;28;20244;-93
2022/11/15 04:01:05;;;;;;;7.93;5.20;;;3.90;99.90;;;;;;5016830;28;20212;-94
2022/11/15 04:03:37;;;;;;;6.03;4.80;;;3.90;99.90;;;;;;5015151;28;20245;-93
2022/11/15 04:06:11;;;;;;;6.27;5.40;;;3.90;99.90;;;;;;5017461;28;20898;-93
2022/11/15 04:08:43;;;;;;;7.43;4.93;;;3.90;99.90;;;;;;5007496;28;20598;-93
2022/11/15 04:11:14;;;;;;;7.73;5.20;;;3.90;99.90;;;;;;5017890;28;20231;-93
2022/11/15 04:13:44;;;;;;;7.63;4.93;;;3.90;99.90;;;;;;5016263;28;20248;-94
2022/11/15 04:16:15;;;;;;;7.27;4.83;;;3.90;99.90;;;;;;5020287;28;20210;-94
2022/11/15 04:24:11;;;;;;;8.20;4.93;;;3.80;99.90;;;;;;5021484;28;20236;-94
2022/11/15 04:24:28;;;;;;;11.60;5.37;;;3.70;99.90;;;;;;5016395;28;20263;-94
2022/11/15 04:26:59;;;;;;;6.60;5.10;;;3.70;99.90;;;;;;5017236;28;20257;-95
2022/11/15 04:29:37;;;;;;;10.53;5.93;;;3.70;99.90;;;;;;5024882;28;20208;-95
2022/11/15 04:32:09;;;;;;;8.30;5.80;;;3.70;99.90;;;;;;5014976;28;20276;-94
2022/11/15 04:34:40;;;;;;;7.50;5.20;;;3.70;99.90;;;;;;5024312;28;20257;-94
2022/11/15 04:37:13;;;;;;;6.83;5.63;;;3.70;99.90;;;;;;5031465;28;20202;-93
2022/11/15 04:39:44;;;;;;;8.00;5.23;;;3.70;99.90;;;;;;5024636;28;20198;-92
2022/11/15 04:42:17;;;;;;;9.60;5.10;;;3.60;99.90;;;;;;5027088;28;20209;-93
2022/11/15 04:44:49;;;;;;;9.07;5.37;;;3.60;99.90;;;;;;5028582;28;20293;-94
2022/11/15 04:47:21;;;;;;;7.13;5.73;;;3.50;99.90;;;;;;5017946;28;20654;-94
2022/11/15 04:49:52;;;;;;;7.70;5.23;;;3.60;99.90;;;;;;5013027;28;20203;-94
2022/11/15 04:52:25;;;;;;;7.37;5.47;;;3.60;99.90;;;;;;5012514;28;20233;-95
2022/11/15 04:54:56;;;;;;;6.97;5.53;;;3.60;99.90;;;;;;5010984;28;20216;-94
2022/11/15 04:57:32;;;;;;;8.10;5.70;;;3.60;99.90;;;;;;5007425;28;20221;-93
2022/11/15 05:00:04;;;;;;;8.67;6.00;;;3.60;99.90;;;;;;4998078;28;20503;-94
2022/11/15 05:05:21;;;;;;;8.43;6.03;;;3.60;99.90;;;;;;5015896;28;20255;-93
2022/11/15 05:07:54;;;;;;;8.77;6.37;;;3.60;99.90;;;;;;5010287;28;20205;-93
2022/11/15 05:10:26;;;;;;;10.47;6.93;;;3.50;99.90;;;;;;5020074;28;20214;-94
2022/11/15 05:12:57;;;;;;;12.73;6.80;;;3.50;99.90;;;;;;5015267;28;20213;-92
2022/11/15 05:15:28;;;;;;;12.03;7.33;;;3.50;99.90;;;;;;5016084;28;20266;-93
2022/11/15 05:18:02;;;;;;;12.57;7.70;;;3.50;99.90;;;;;;5016563;28;20292;-93
2022/11/15 05:20:33;;;;;;;9.47;6.27;;;3.50;99.90;;;;;;5013390;28;20304;-92
2022/11/15 05:23:06;;;;;;;11.17;7.33;;;3.40;99.90;;;;;;5013171;28;20616;-94
2022/11/15 05:25:38;;;;;;;12.87;7.27;;;3.40;99.90;;;;;;4999936;28;20241;-95
2022/11/15 05:28:09;;;;;;;9.50;6.50;;;3.40;99.90;;;;;;5027607;28;20229;-95
2022/11/15 05:30:41;;;;;;;8.17;5.97;;;3.40;99.90;;;;;;5034282;28;20249;-94
2022/11/15 05:33:13;;;;;;;8.53;5.73;;;3.40;99.90;;;;;;5030234;28;20248;-93
2022/11/15 05:35:48;;;;;;;7.77;5.17;;;3.40;99.90;;;;;;5023685;28;20198;-93
2022/11/15 05:38:22;;;;;;;9.13;5.93;;;3.40;99.90;;;;;;5016317;28;20359;-94
2022/11/15 05:40:53;;;;;;;8.37;5.90;;;3.40;99.90;;;;;;5011624;28;20278;-94
2022/11/15 05:43:25;;;;;;;8.10;5.47;;;3.40;99.90;;;;;;5012786;28;20209;-93
2022/11/15 05:45:57;;;;;;;7.93;5.77;;;3.40;99.90;;;;;;5011399;28;20208;-94
2022/11/15 05:48:28;;;;;;;8.23;5.80;;;3.40;99.90;;;;;;5013504;28;20292;-93
2022/11/15 05:51:02;;;;;;;6.87;5.57;;;3.40;99.90;;;;;;5011688;28;20297;-94
2022/11/15 05:53:35;;;;;;;8.20;5.30;;;3.40;99.90;;;;;;5009601;28;20221;-93
2022/11/15 05:56:07;;;;;;;8.50;5.43;;;3.30;99.90;;;;;;5015021;28;20241;-94
2022/11/15 05:58:39;;;;;;;7.10;5.60;;;3.30;99.90;;;;;;5008976;28;20714;-92
2022/11/15 06:01:10;;;;;;;7.10;5.10;;;3.30;99.90;;;;;;5007331;28;20273;-94
2022/11/15 06:03:41;;;;;;;7.10;5.23;;;3.30;99.90;;;;;;5013883;28;20637;-94
2022/11/15 06:06:12;;;;;;;7.20;5.37;;;3.20;99.90;;;;;;5016088;28;20705;-94
2022/11/15 06:08:47;;;;;;;7.20;5.00;;;3.20;99.90;;;;;;5019177;28;20233;-94
2022/11/15 06:11:18;;;;;;;6.33;5.13;;;3.10;99.90;;;;;;5016013;28;20633;-94
2022/11/15 06:13:49;;;;;;;7.60;5.23;;;3.10;99.90;;;;;;5016335;28;20258;-93
2022/11/15 06:16:20;;;;;;;6.70;4.90;;;3.10;99.90;;;;;;5018148;28;20270;-95
2022/11/15 06:18:51;;;;;;;7.23;5.50;;;3.00;99.90;;;;;;5018203;28;20227;-94
2022/11/15 06:21:22;;;;;;;7.30;5.40;;;3.10;99.90;;;;;;5013406;28;20217;-93
2022/11/15 06:23:56;;;;;;;8.10;5.70;;;3.00;99.90;;;;;;5015216;28;20202;-93
2022/11/15 06:26:27;;;;;;;7.00;5.13;;;3.00;99.90;;;;;;5021279;28;20226;-94
2022/11/15 06:28:58;;;;;;;7.63;5.53;;;3.00;99.90;;;;;;5014412;28;20296;-95
2022/11/15 06:31:29;;;;;;;6.53;4.90;;;2.90;99.90;;;;;;5011885;28;20297;-94
2022/11/15 06:34:01;;;;;;;6.60;4.90;;;3.00;99.90;;;;;;5007828;28;20887;-95
2022/11/15 06:36:32;;;;;;;5.93;4.77;;;3.00;99.90;;;;;;5010492;28;20244;-94
2022/11/15 06:39:06;;;;;;;6.43;4.50;;;3.00;99.90;;;;;;5012506;28;20231;-94
2022/11/15 06:41:38;;;;;;;8.30;4.60;;;3.00;99.90;;;;;;5023506;28;20209;-95
2022/11/15 06:44:09;;;;;;;6.83;4.20;;;3.10;99.90;;;;;;5007641;28;20413;-94
2022/11/15 06:46:40;;;;;;;7.37;4.93;;;3.10;99.90;;;;;;5016213;28;20295;-95
2022/11/15 06:49:13;;;;;;;7.37;5.33;;;3.10;99.90;;;;;;5017451;28;20233;-94
2022/11/15 06:51:44;;;;;;;6.37;4.47;;;3.10;99.90;;;;;;5029888;28;20233;-94
2022/11/15 06:54:16;;;;;;;6.43;4.40;;;3.10;99.90;;;;;;5033742;28;20217;-92
2022/11/15 06:56:47;;;;;;;7.27;4.97;;;3.10;99.90;;;;;;5034992;28;20216;-94
2022/11/15 06:59:18;;;;;;;5.53;4.40;;;3.00;99.90;;;;;;5033700;28;20430;-93
2022/11/15 07:01:48;;;;;;;5.67;4.27;;;3.00;99.90;;;;;;5031958;28;20198;-94
2022/11/15 07:04:20;;;;;;;6.57;4.10;;;3.00;99.90;;;;;;5032477;28;20268;-93
2022/11/15 07:06:53;;;;;;;5.30;4.30;;;3.00;99.90;;;;;;5025116;28;20225;-94
2022/11/15 07:09:26;;;;;;;6.10;4.87;;;2.90;99.90;;;;;;5018075;28;20202;-94
2022/11/15 07:11:57;;;;;;;6.53;4.13;;;2.90;99.90;;;;;;5015053;28;20243;-93
2022/11/15 07:14:35;;;;;;;6.30;4.87;;;2.80;99.90;;;;;;5008227;28;20611;-94
2022/11/15 07:17:06;;;;;;;7.10;4.30;;;2.80;99.90;;;;;;5012167;28;20237;-94
2022/11/15 07:19:38;;;;;;;5.03;4.07;;;2.80;99.90;;;;;;5016702;28;20308;-93
2022/11/15 07:22:08;;;;;;;6.73;5.00;;;2.80;99.90;;;;;;5010834;28;20202;-93
2022/11/15 07:24:42;;;;;;;7.10;4.73;;;2.80;99.90;;;;;;4996032;28;20209;-93
2022/11/15 07:27:12;;;;;;;6.67;4.70;;;2.80;99.90;;;;;;5003890;28;20724;-93
2022/11/15 07:29:44;;;;;;;6.40;4.50;;;2.80;99.90;;;;;;5007070;28;20221;-93
2022/11/15 07:32:15;;;;;;;8.50;4.67;;;2.80;99.90;;;;;;5005933;28;20271;-93
2022/11/15 07:34:46;;;;;;;5.93;4.20;;;2.70;99.90;;;;;;5018280;28;20289;-95
2022/11/15 07:37:17;;;;;;;7.33;4.60;;;2.70;99.90;;;;;;5013137;28;20281;-92
2022/11/15 07:39:51;;;;;;;5.83;4.77;;;2.70;99.90;;;;;;5007787;28;20211;-94
2022/11/15 07:45:10;;;;;;;6.20;4.80;;;2.60;99.90;;;;;;5034240;28;20232;-95
2022/11/15 07:47:41;;;;;;;7.30;4.37;;;2.60;99.90;;;;;;5016559;28;20628;-93
2022/11/15 07:50:13;;;;;;;6.27;4.83;;;2.60;99.90;;;;;;5012727;28;20220;-94
2022/11/15 07:52:45;;;;;;;5.63;4.33;;;2.60;99.90;;;;;;5017595;28;20240;-94
2022/11/15 07:55:18;;;;;;;7.33;4.73;;;2.60;99.90;;;;;;5016284;28;20217;-94
2022/11/15 07:57:49;;;;;;;5.03;4.07;;;2.60;99.90;;;;;;5015601;28;20291;-93
2022/11/15 08:00:20;;;;;;;6.07;4.40;;;2.60;99.90;;;;;;5014872;28;20205;-93
2022/11/15 08:02:52;;;;;;;4.90;4.00;;;2.60;99.90;;;;;;5004791;28;20638;-94
2022/11/15 08:05:24;;;;;;;5.70;4.37;;;2.50;99.90;;;;;;5014149;28;20274;-92
2022/11/15 08:07:57;;;;;;;6.37;4.23;;;2.50;99.90;;;;;;5012192;28;20198;-94
2022/11/15 08:10:31;;;;;;;7.17;4.67;;;2.50;99.90;;;;;;5000470;28;20205;-93
2022/11/15 08:13:11;;;;;;;7.93;4.23;;;2.40;99.90;;;;;;5004065;28;20233;-94
2022/11/15 08:15:42;;;;;;;6.43;4.63;;;2.40;99.90;;;;;;5013215;28;21855;-93
2022/11/15 08:18:15;;;;;;;5.93;5.00;;;2.30;99.90;;;;;;5013294;28;20205;-94
2022/11/15 08:20:47;;;;;;;7.27;5.10;;;2.30;99.90;;;;;;5015674;28;20212;-93
2022/11/15 08:23:18;;;;;;;6.10;4.53;;;2.30;99.90;;;;;;5009611;28;20206;-94
2022/11/15 08:25:51;;;;;;;5.83;4.00;;;2.40;99.90;;;;;;5014693;28;20241;-92
2022/11/15 08:28:22;;;;;;;5.40;4.47;;;2.40;99.90;;;;;;5016154;28;20229;-94
2022/11/15 08:30:55;;;;;;;5.70;4.40;;;2.40;99.90;;;;;;5017678;28;20210;-94
2022/11/15 08:33:26;;;;;;;5.03;3.80;;;2.50;99.90;;;;;;5018741;28;20316;-94
2022/11/15 08:35:59;;;;;;;7.77;4.07;;;2.50;99.90;;;;;;5018255;28;20271;-94
2022/11/15 08:38:31;;;;;;;5.67;3.83;;;2.50;99.90;;;;;;5018799;28;20283;-93
2022/11/15 08:41:06;;;;;;;5.20;4.07;;;2.50;99.90;;;;;;5012183;28;20206;-95
2022/11/15 08:43:37;;;;;;;7.27;4.57;;;2.50;99.90;;;;;;5018052;28;20288;-93
2022/11/15 08:46:07;;;;;;;6.87;4.67;;;2.60;99.90;;;;;;5030616;28;20202;-93
2022/11/15 08:48:40;;;;;;;5.50;4.13;;;2.60;99.90;;;;;;5029202;28;20203;-92
2022/11/15 08:51:11;;;;;;;7.40;4.57;;;2.60;99.90;;;;;;5026003;28;20206;-93
2022/11/15 08:53:43;;;;;;;6.43;4.80;;;2.60;99.90;;;;;;5034402;28;20245;-93
2022/11/15 08:56:17;;;;;;;6.30;4.80;;;2.70;99.90;;;;;;5022957;28;20217;-94
2022/11/15 08:58:48;;;;;;;6.57;4.60;;;2.80;99.90;;;;;;5027604;28;20208;-95
2022/11/15 09:01:21;;;;;;;6.37;4.40;;;2.80;99.90;;;;;;5030228;28;20230;-93
2022/11/15 09:03:52;;;;;;;6.07;4.47;;;2.80;99.90;;;;;;5020155;28;20561;-95
2022/11/15 09:06:23;;;;;;;6.53;4.30;;;2.80;99.90;;;;;;5025659;28;20209;-94
2022/11/15 09:08:54;;;;;;;6.80;4.80;;;2.80;99.90;;;;;;5006559;28;20652;-94
2022/11/15 09:11:27;;;;;;;7.20;4.47;;;2.80;99.90;;;;;;5015041;28;20218;-93
2022/11/15 09:13:58;;;;;;;8.67;4.90;;;2.70;99.90;;;;;;5006503;28;20241;-93
2022/11/15 09:16:29;;;;;;;8.53;4.60;;;2.70;99.90;;;;;;5006947;28;20232;-93
2022/11/15 09:19:00;;;;;;;6.07;4.53;;;2.70;99.90;;;;;;4670700;28;10000394;-93
2022/11/15 09:21:31;;;;;;;6.07;4.50;;;2.60;99.90;;;;;;5016160;28;20210;-94
2022/11/15 09:24:04;;;;;;;7.27;4.53;;;2.60;99.90;;;;;;5018948;28;20206;-93
2022/11/15 09:26:36;;;;;;;8.27;4.63;;;2.60;99.90;;;;;;5013268;28;20269;-94
2022/11/15 09:29:08;;;;;;;4.87;4.17;;;2.50;99.90;;;;;;5013333;28;20210;-94
2022/11/15 09:31:39;;;;;;;6.37;4.53;;;2.50;99.90;;;;;;5013077;28;20206;-94
2022/11/15 09:34:11;;;;;;;6.50;4.53;;;2.50;99.90;;;;;;5015282;28;20340;-92
2022/11/15 09:36:43;;;;;;;5.57;4.90;;;2.40;99.90;;;;;;5015880;28;20296;-93
2022/11/15 09:39:14;;;;;;;6.90;4.97;;;2.30;99.90;;;;;;5016186;28;20297;-93
2022/11/15 09:42:25;;;;;;;7.73;4.73;;;2.30;99.90;;;;;;5014297;28;20217;-94
2022/11/15 09:45:12;;;;;;;7.97;4.60;;;2.30;99.90;;;;;;5012522;28;20215;-95
2022/11/15 09:48:21;;;;;;;8.47;4.70;;;2.30;99.90;;;;;;5012600;28;20270;-96
2022/11/15 09:51:00;;;;;;;9.43;4.23;;;2.20;99.90;;;;;;4995138;28;20210;-95
2022/11/15 09:53:38;;;;;;;5.67;4.37;;;2.20;99.90;;;;;;5031875;28;20210;-95
2022/11/15 09:56:33;;;;;;;5.80;4.27;;;2.20;99.90;;;;;;5031114;28;20274;-95
2022/11/15 09:59:18;;;;;;;5.53;4.37;;;2.10;99.90;;;;;;5012527;28;20245;-95
2022/11/15 10:01:57;;;;;;;6.37;3.93;;;2.10;99.90;;;;;;5014721;28;20216;-93
2022/11/15 10:04:29;;;;;;;7.43;3.80;;;2.10;99.90;;;;;;5012748;28;20240;-94
2022/11/15 10:07:12;;;;;;;6.60;4.60;;;2.10;99.90;;;;;;5007127;28;20289;-94
2022/11/15 10:09:50;;;;;;;6.13;4.30;;;2.10;99.90;;;;;;5008418;28;20217;-93
2022/11/15 10:12:21;;;;;;;5.83;4.17;;;2.10;99.90;;;;;;5012831;28;20241;-93
2022/11/15 10:15:02;;;;;;;6.20;3.90;;;2.10;99.90;;;;;;5012113;28;20233;-92
2022/11/15 10:18:02;;;;;;;6.23;4.03;;;2.10;99.90;;;;;;5022405;28;20248;-91
2022/11/15 10:20:41;;;;;;;5.63;4.10;;;2.10;99.90;;;;;;5011997;28;20296;-92
2022/11/15 10:23:16;;;;;;;5.93;4.20;;;2.10;99.90;;;;;;5012352;28;20205;-93
2022/11/15 10:25:47;;;;;;;5.00;4.17;;;2.00;99.90;;;;;;5003790;28;20205;-93
2022/11/15 10:28:24;;;;;;;6.33;4.33;;;2.00;99.90;;;;;;5004719;28;20289;-93
2022/11/15 10:31:00;;;;;;;5.03;4.00;;;2.00;99.90;;;;;;5013926;28;20287;-94
2022/11/15 10:33:36;;;;;;;5.40;3.93;;;2.10;99.90;;;;;;5013025;28;20205;-93
2022/11/15 10:36:25;;;;;;;7.80;4.00;;;2.00;99.90;;;;;;5016569;28;20201;-94
2022/11/15 10:39:00;;;;;;;5.63;3.67;;;2.00;99.90;;;;;;5013680;28;20285;-93
2022/11/15 10:41:49;;;;;;;5.70;4.07;;;2.00;99.90;;;;;;5013272;28;20683;-94
2022/11/15 10:44:23;;;;;;;5.43;3.80;;;2.00;99.90;;;;;;5016669;28;20295;-94
2022/11/15 10:47:37;;;;;;;3.93;3.23;;;2.00;99.90;;;;;;5013164;28;20201;-94
2022/11/15 10:50:29;;;;;;;4.63;3.60;;;2.00;99.90;;;;;;4997192;28;20214;-94
2022/11/15 10:53:03;;;;;;;6.03;3.70;;;2.00;99.90;;;;;;5024832;28;20225;-94
2022/11/15 10:55:36;;;;;;;5.33;4.17;;;1.90;99.90;;;;;;5030454;28;20300;-93
2022/11/15 10:58:24;;;;;;;6.47;3.67;;;1.90;99.90;;;;;;5028524;28;20273;-93
2022/11/15 11:00:56;;;;;;;4.80;3.53;;;1.90;99.90;;;;;;5013426;28;20300;-94
2022/11/15 11:03:37;;;;;;;5.53;3.90;;;1.80;99.90;;;;;;5005190;28;20902;-94
2022/11/15 11:06:12;;;;;;;4.70;3.47;;;1.80;99.90;;;;;;4999695;28;20287;-93
2022/11/15 11:08:55;;;;;;;4.60;3.50;;;1.80;99.90;;;;;;5025629;28;20729;-93
2022/11/15 11:11:26;;;;;;;5.47;3.83;;;1.80;99.90;;;;;;5017136;28;20249;-94
2022/11/15 11:14:12;;;;;;;5.00;3.53;;;1.80;99.90;;;;;;5018052;28;20233;-95
2022/11/15 11:16:50;;;;;;;5.63;4.00;;;1.80;99.90;;;;;;4997524;28;20218;-94
2022/11/15 11:19:51;;;;;;;5.37;3.30;;;1.80;99.90;;;;;;4999080;28;20309;-93
2022/11/15 11:22:32;;;;;;;5.30;3.20;;;1.80;99.90;;;;;;5007388;28;20288;-93
2022/11/15 11:25:17;;;;;;;4.47;3.20;;;1.70;99.90;;;;;;5014827;28;20308;-93
2022/11/15 11:28:02;;;;;;;8.23;3.90;;;1.70;99.90;;;;;;5015123;28;20269;-94
2022/11/15 11:30:49;;;;;;;3.97;3.27;;;1.70;99.90;;;;;;5013266;28;20241;-93
2022/11/15 11:33:23;;;;;;;5.13;3.40;;;1.70;99.90;;;;;;5006123;28;20221;-93
2022/11/15 11:36:04;;;;;;;5.50;3.50;;;1.70;99.90;;;;;;5013184;28;20244;-93
2022/11/15 11:38:48;;;;;;;4.93;3.50;;;1.70;99.90;;;;;;5008919;28;20245;-93
2022/11/15 11:41:45;;;;;;;4.67;3.57;;;1.70;99.90;;;;;;4994524;28;20726;-93
2022/11/15 11:44:37;;;;;;;5.20;3.33;;;1.70;99.90;;;;;;5010550;28;20216;-94
2022/11/15 11:47:12;;;;;;;6.30;3.17;;;1.70;99.90;;;;;;5011750;28;20672;-93
2022/11/15 11:49:48;;;;;;;5.07;3.53;;;1.70;99.90;;;;;;5012946;28;20239;-93
2022/11/15 11:52:23;;;;;;;4.90;3.33;;;1.70;99.90;;;;;;4993171;28;20265;-94
2022/11/15 11:55:03;;;;;;;4.13;3.13;;;1.60;99.90;;;;;;5008280;28;20320;-94
2022/11/15 11:57:42;;;;;;;5.20;3.40;;;1.60;99.90;;;;;;5014456;28;20647;-94
2022/11/15 12:00:21;;;;;;;4.87;3.40;;;1.60;99.90;;;;;;5015110;28;20542;-92
2022/11/15 12:03:10;;;;;;;4.20;3.20;;;1.60;99.90;;;;;;5016513;28;20269;-94
2022/11/15 12:05:45;;;;;;;5.43;3.20;;;1.50;99.90;;;;;;5036170;28;20245;-94
2022/11/15 12:08:32;;;;;;;5.77;3.50;;;1.50;99.90;;;;;;5037099;28;20201;-94
2022/11/15 12:11:16;;;;;;;4.83;3.30;;;1.50;99.90;;;;;;5006055;28;20206;-95
2022/11/15 12:13:52;;;;;;;5.27;3.80;;;1.50;99.90;;;;;;5004555;28;20240;-94
2022/11/15 12:16:27;;;;;;;4.90;3.43;;;1.50;99.90;;;;;;5017083;28;20713;-95
2022/11/15 12:19:02;;;;;;;4.83;3.60;;;1.50;99.90;;;;;;5010807;28;20300;-95
2022/11/15 12:21:42;;;;;;;6.17;3.80;;;1.40;99.90;;;;;;5016696;28;20268;-94
2022/11/15 12:24:20;;;;;;;8.30;3.63;;;1.40;99.90;;;;;;5007364;28;20284;-95
2022/11/15 12:27:01;;;;;;;4.30;3.40;;;1.50;99.90;;;;;;5019084;28;20233;-95
2022/11/15 12:29:39;;;;;;;4.70;3.50;;;1.40;99.90;;;;;;5018699;28;20213;-95
2022/11/15 12:32:23;;;;;;;5.57;3.67;;;1.40;99.90;;;;;;5019526;28;20693;-94
2022/11/15 12:34:55;;;;;;;5.07;3.27;;;1.40;99.90;;;;;;5016556;28;20320;-94
2022/11/15 12:37:51;;;;;;;4.87;3.40;;;1.50;99.90;;;;;;5007639;28;20245;-94
2022/11/15 12:40:28;;;;;;;5.70;3.47;;;1.50;99.90;;;;;;5012012;28;20209;-93
2022/11/15 12:43:12;;;;;;;3.80;3.10;;;1.50;99.90;;;;;;5019663;28;20300;-92
2022/11/15 12:45:45;;;;;;;4.30;3.07;;;1.50;99.90;;;;;;5015331;28;20225;-95
2022/11/15 12:48:50;;;;;;;4.40;3.40;;;1.50;99.90;;;;;;5038905;28;20244;-95
2022/11/15 12:51:24;;;;;;;3.77;3.13;;;1.60;99.90;;;;;;5027609;28;20197;-94
2022/11/15 12:53:55;;;;;;;4.67;3.00;;;1.60;99.90;;;;;;5036650;28;20206;-94
2022/11/15 12:56:26;;;;;;;3.93;3.23;;;1.60;99.90;;;;;;5034710;28;20229;-94
2022/11/15 12:59:02;;;;;;;4.93;3.40;;;1.60;99.90;;;;;;5033629;28;20248;-93
2022/11/15 13:02:02;;;;;;;4.13;3.20;;;1.50;99.90;;;;;;5033078;28;20209;-95
2022/11/15 13:04:34;;;;;;;4.57;2.80;;;1.50;99.90;;;;;;4998073;28;20229;-94
2022/11/15 13:07:07;;;;;;;4.50;3.30;;;1.50;99.90;;;;;;4998551;28;20260;-95
2022/11/15 13:09:57;;;;;;;3.97;3.10;;;1.50;99.90;;;;;;4999067;28;20207;-93
2022/11/15 13:12:54;;;;;;;4.07;2.93;;;1.50;99.90;;;;;;4995874;28;20210;-94
2022/11/15 13:16:01;;;;;;;3.67;2.57;;;1.50;99.90;;;;;;4996363;28;20261;-94
2022/11/15 13:18:38;;;;;;;10.10;2.97;;;1.50;99.90;;;;;;4997778;28;20245;-95
2022/11/15 13:24:16;;;;;;;4.23;3.20;;;1.50;99.90;;;;;;5007359;28;20284;-95
2022/11/15 13:26:48;;;;;;;3.60;3.00;;;1.50;99.90;;;;;;5016820;28;20229;-95
2022/11/15 13:29:21;;;;;;;3.70;2.73;;;1.40;99.90;;;;;;5016730;28;20233;-94
2022/11/15 13:31:56;;;;;;;3.53;2.70;;;1.40;99.90;;;;;;4996544;28;20757;-94
2022/11/15 13:34:32;;;;;;;4.43;3.20;;;1.40;99.90;;;;;;5015652;28;20685;-93
2022/11/15 13:37:33;;;;;;;3.30;2.73;;;1.40;99.90;;;;;;5016351;28;20228;-94
2022/11/15 13:40:22;;;;;;;5.00;3.40;;;1.40;99.90;;;;;;5009112;28;20712;-94
2022/11/15 13:42:53;;;;;;;5.57;3.00;;;1.40;99.90;;;;;;5015481;28;20212;-94
2022/11/15 13:45:26;;;;;;;4.67;3.07;;;1.30;99.90;;;;;;5015715;28;20210;-93
2022/11/15 13:48:00;;;;;;;3.57;2.70;;;1.40;99.90;;;;;;5004093;28;20213;-94
2022/11/15 13:50:37;;;;;;;3.63;2.73;;;1.40;99.90;;;;;;5015929;28;20209;-95
2022/11/15 13:53:08;;;;;;;3.80;2.97;;;1.40;99.90;;;;;;5011389;28;20210;-95
2022/11/15 13:55:39;;;;;;;4.40;3.30;;;1.30;99.90;;;;;;5015642;28;20265;-95